Terminal Aerodrome Forecast
Issued by NWS

Current Version | Previous Version | Graphics & Text | Print | Product List | Glossary On
Versions: 1 2 3 4 5 6 7 8 9 10 11 12 13 14 15 16 17 18 19 20 21 22 23 24 25 26
309
FTUS41 KRLX 230900 AAA
TAFCKB
TAF AMD
KCKB 230900Z 2309/2406 00000KT P6SM BKN011 OVC090
      TEMPO 2310/2312 2SM BR SCT011 SCT090
     FM231400 00000KT P6SM BKN060
     FM231900 34004KT P6SM VCTS BKN040CB
     FM232100 35005KT 4SM -SHRA VCTS BKN040CB
     FM232200 36004KT P6SM VCSH BKN060
     FM240000 00000KT P6SM BKN100=

USA.gov is the U.S. government's official web portal to all federal, state and local government web resources and services.